sensor_id;sensor_type;location;lat;lon;timestamp;P1;durP1;ratioP1;P2;durP2;ratioP2
21503;SDS011;10913;51.992;9.228;2022-07-04T00:00:09;1.13;;;1.00;;
21503;SDS011;10913;51.992;9.228;2022-07-04T00:02:37;1.20;;;1.10;;
21503;SDS011;10913;51.992;9.228;2022-07-04T00:05:04;1.92;;;1.10;;
21503;SDS011;10913;51.992;9.228;2022-07-04T00:07:29;1.33;;;1.20;;
21503;SDS011;10913;51.992;9.228;2022-07-04T00:09:55;1.98;;;1.23;;
21503;SDS011;10913;51.992;9.228;2022-07-04T00:12:20;1.10;;;1.00;;
21503;SDS011;10913;51.992;9.228;2022-07-04T00:14:46;1.20;;;1.00;;
21503;SDS011;10913;51.992;9.228;2022-07-04T00:17:12;1.73;;;1.00;;
21503;SDS011;10913;51.992;9.228;2022-07-04T00:19:37;2.25;;;1.20;;
21503;SDS011;10913;51.992;9.228;2022-07-04T00:22:02;1.55;;;1.30;;
21503;SDS011;10913;51.992;9.228;2022-07-04T00:24:28;1.30;;;1.20;;
21503;SDS011;10913;51.992;9.228;2022-07-04T00:26:54;2.08;;;1.20;;
21503;SDS011;10913;51.992;9.228;2022-07-04T00:29:19;1.48;;;1.00;;
21503;SDS011;10913;51.992;9.228;2022-07-04T00:31:45;1.60;;;1.20;;
21503;SDS011;10913;51.992;9.228;2022-07-04T00:34:10;2.25;;;1.27;;
21503;SDS011;10913;51.992;9.228;2022-07-04T00:36:36;1.20;;;1.10;;
21503;SDS011;10913;51.992;9.228;2022-07-04T00:39:01;1.65;;;1.25;;
21503;SDS011;10913;51.992;9.228;2022-07-04T00:41:27;1.13;;;1.00;;
21503;SDS011;10913;51.992;9.228;2022-07-04T00:44:05;2.05;;;1.23;;
21503;SDS011;10913;51.992;9.228;2022-07-04T00:46:33;1.20;;;1.10;;
21503;SDS011;10913;51.992;9.228;2022-07-04T00:48:59;1.90;;;1.10;;
21503;SDS011;10913;51.992;9.228;2022-07-04T00:51:25;1.52;;;1.10;;
21503;SDS011;10913;51.992;9.228;2022-07-04T00:53:52;1.23;;;1.10;;
21503;SDS011;10913;51.992;9.228;2022-07-04T00:56:18;1.20;;;1.10;;
21503;SDS011;10913;51.992;9.228;2022-07-04T00:58:44;1.77;;;1.20;;
21503;SDS011;10913;51.992;9.228;2022-07-04T01:01:10;1.30;;;1.20;;
21503;SDS011;10913;51.992;9.228;2022-07-04T01:03:35;2.05;;;1.30;;
21503;SDS011;10913;51.992;9.228;2022-07-04T01:06:01;1.38;;;1.23;;
21503;SDS011;10913;51.992;9.228;2022-07-04T01:08:26;1.20;;;1.10;;
21503;SDS011;10913;51.992;9.228;2022-07-04T01:10:51;1.42;;;1.08;;
21503;SDS011;10913;51.992;9.228;2022-07-04T01:13:20;3.75;;;1.27;;
21503;SDS011;10913;51.992;9.228;2022-07-04T01:15:47;2.15;;;1.13;;
21503;SDS011;10913;51.992;9.228;2022-07-04T01:18:13;1.42;;;1.30;;
21503;SDS011;10913;51.992;9.228;2022-07-04T01:20:38;1.10;;;1.00;;
21503;SDS011;10913;51.992;9.228;2022-07-04T01:23:05;1.30;;;1.20;;
21503;SDS011;10913;51.992;9.228;2022-07-04T01:25:31;2.05;;;1.23;;
21503;SDS011;10913;51.992;9.228;2022-07-04T01:27:58;1.80;;;1.30;;
21503;SDS011;10913;51.992;9.228;2022-07-04T01:30:25;1.35;;;1.25;;
21503;SDS011;10913;51.992;9.228;2022-07-04T01:32:51;1.10;;;1.00;;
21503;SDS011;10913;51.992;9.228;2022-07-04T01:35:16;1.15;;;1.05;;
21503;SDS011;10913;51.992;9.228;2022-07-04T01:37:42;1.23;;;0.90;;
21503;SDS011;10913;51.992;9.228;2022-07-04T01:40:07;1.35;;;1.25;;
21503;SDS011;10913;51.992;9.228;2022-07-04T01:42:34;2.83;;;1.13;;
21503;SDS011;10913;51.992;9.228;2022-07-04T01:44:59;1.73;;;1.20;;
21503;SDS011;10913;51.992;9.228;2022-07-04T01:47:24;1.38;;;1.30;;
21503;SDS011;10913;51.992;9.228;2022-07-04T01:49:50;1.58;;;1.20;;
21503;SDS011;10913;51.992;9.228;2022-07-04T01:52:15;1.73;;;1.20;;
21503;SDS011;10913;51.992;9.228;2022-07-04T01:54:41;1.67;;;1.10;;
21503;SDS011;10913;51.992;9.228;2022-07-04T01:57:06;1.30;;;1.20;;
21503;SDS011;10913;51.992;9.228;2022-07-04T01:59:32;1.63;;;1.20;;
21503;SDS011;10913;51.992;9.228;2022-07-04T02:02:16;1.77;;;1.40;;
21503;SDS011;10913;51.992;9.228;2022-07-04T02:04:42;2.08;;;1.25;;
21503;SDS011;10913;51.992;9.228;2022-07-04T02:07:07;1.38;;;1.27;;
21503;SDS011;10913;51.992;9.228;2022-07-04T02:09:32;1.77;;;1.25;;
21503;SDS011;10913;51.992;9.228;2022-07-04T02:11:58;1.77;;;1.20;;
21503;SDS011;10913;51.992;9.228;2022-07-04T02:14:42;3.37;;;1.20;;
21503;SDS011;10913;51.992;9.228;2022-07-04T02:17:08;2.25;;;1.20;;
21503;SDS011;10913;51.992;9.228;2022-07-04T02:19:34;1.67;;;1.20;;
21503;SDS011;10913;51.992;9.228;2022-07-04T02:22:00;1.20;;;1.10;;
21503;SDS011;10913;51.992;9.228;2022-07-04T02:24:25;2.05;;;1.10;;
21503;SDS011;10913;51.992;9.228;2022-07-04T02:26:50;2.20;;;1.20;;
21503;SDS011;10913;51.992;9.228;2022-07-04T02:29:16;2.67;;;1.20;;
21503;SDS011;10913;51.992;9.228;2022-07-04T02:31:41;1.50;;;1.13;;
21503;SDS011;10913;51.992;9.228;2022-07-04T02:34:07;1.40;;;1.25;;
21503;SDS011;10913;51.992;9.228;2022-07-04T02:36:32;2.30;;;1.20;;
21503;SDS011;10913;51.992;9.228;2022-07-04T02:38:58;2.03;;;1.30;;
21503;SDS011;10913;51.992;9.228;2022-07-04T02:41:23;2.40;;;1.23;;
21503;SDS011;10913;51.992;9.228;2022-07-04T02:43:49;1.30;;;1.20;;
21503;SDS011;10913;51.992;9.228;2022-07-04T02:46:14;1.48;;;1.38;;
21503;SDS011;10913;51.992;9.228;2022-07-04T02:48:39;1.30;;;1.20;;
21503;SDS011;10913;51.992;9.228;2022-07-04T02:51:05;1.50;;;1.40;;
21503;SDS011;10913;51.992;9.228;2022-07-04T02:53:30;1.33;;;1.23;;
21503;SDS011;10913;51.992;9.228;2022-07-04T02:55:56;1.38;;;1.27;;
21503;SDS011;10913;51.992;9.228;2022-07-04T02:58:21;2.70;;;1.40;;
21503;SDS011;10913;51.992;9.228;2022-07-04T03:00:46;3.15;;;1.58;;
21503;SDS011;10913;51.992;9.228;2022-07-04T03:03:12;1.35;;;1.20;;
21503;SDS011;10913;51.992;9.228;2022-07-04T03:05:37;1.50;;;1.40;;
21503;SDS011;10913;51.992;9.228;2022-07-04T03:08:02;1.60;;;1.50;;
21503;SDS011;10913;51.992;9.228;2022-07-04T03:10:28;2.90;;;1.50;;
21503;SDS011;10913;51.992;9.228;2022-07-04T03:12:53;1.35;;;1.20;;
21503;SDS011;10913;51.992;9.228;2022-07-04T03:15:19;1.98;;;1.50;;
21503;SDS011;10913;51.992;9.228;2022-07-04T03:17:44;1.42;;;1.33;;
21503;SDS011;10913;51.992;9.228;2022-07-04T03:20:10;1.77;;;1.35;;
21503;SDS011;10913;51.992;9.228;2022-07-04T03:22:35;2.58;;;1.40;;
21503;SDS011;10913;51.992;9.228;2022-07-04T03:25:01;1.52;;;1.40;;
21503;SDS011;10913;51.992;9.228;2022-07-04T03:27:26;1.30;;;1.20;;
21503;SDS011;10913;51.992;9.228;2022-07-04T03:29:51;1.80;;;1.33;;
21503;SDS011;10913;51.992;9.228;2022-07-04T03:32:17;2.00;;;1.40;;
21503;SDS011;10913;51.992;9.228;2022-07-04T03:34:42;1.92;;;1.70;;
21503;SDS011;10913;51.992;9.228;2022-07-04T03:37:08;2.00;;;1.80;;
21503;SDS011;10913;51.992;9.228;2022-07-04T03:39:33;1.75;;;1.50;;
21503;SDS011;10913;51.992;9.228;2022-07-04T03:41:58;1.83;;;1.60;;
21503;SDS011;10913;51.992;9.228;2022-07-04T03:44:24;2.30;;;1.58;;
21503;SDS011;10913;51.992;9.228;2022-07-04T03:46:49;1.90;;;1.50;;
21503;SDS011;10913;51.992;9.228;2022-07-04T03:49:14;1.73;;;1.50;;
21503;SDS011;10913;51.992;9.228;2022-07-04T03:51:40;1.50;;;1.40;;
21503;SDS011;10913;51.992;9.228;2022-07-04T03:54:05;2.47;;;1.75;;
21503;SDS011;10913;51.992;9.228;2022-07-04T03:56:31;1.65;;;1.55;;
21503;SDS011;10913;51.992;9.228;2022-07-04T03:58:56;1.67;;;1.55;;
21503;SDS011;10913;51.992;9.228;2022-07-04T04:01:21;1.83;;;1.42;;
21503;SDS011;10913;51.992;9.228;2022-07-04T04:03:47;1.77;;;1.60;;
21503;SDS011;10913;51.992;9.228;2022-07-04T04:06:31;1.67;;;1.50;;
21503;SDS011;10913;51.992;9.228;2022-07-04T04:08:57;2.63;;;1.40;;
21503;SDS011;10913;51.992;9.228;2022-07-04T04:11:23;1.40;;;1.30;;
21503;SDS011;10913;51.992;9.228;2022-07-04T04:13:48;1.45;;;1.35;;
21503;SDS011;10913;51.992;9.228;2022-07-04T04:16:14;1.60;;;1.50;;
21503;SDS011;10913;51.992;9.228;2022-07-04T04:18:39;2.63;;;1.45;;
21503;SDS011;10913;51.992;9.228;2022-07-04T04:21:04;1.92;;;1.70;;
21503;SDS011;10913;51.992;9.228;2022-07-04T04:23:30;2.15;;;1.75;;
21503;SDS011;10913;51.992;9.228;2022-07-04T04:25:55;1.90;;;1.70;;
21503;SDS011;10913;51.992;9.228;2022-07-04T04:28:21;2.85;;;2.08;;
21503;SDS011;10913;51.992;9.228;2022-07-04T04:30:47;1.67;;;1.58;;
21503;SDS011;10913;51.992;9.228;2022-07-04T04:33:13;1.40;;;1.30;;
21503;SDS011;10913;51.992;9.228;2022-07-04T04:35:38;1.60;;;1.50;;
21503;SDS011;10913;51.992;9.228;2022-07-04T04:38:04;1.50;;;1.40;;
21503;SDS011;10913;51.992;9.228;2022-07-04T04:40:29;3.17;;;1.73;;
21503;SDS011;10913;51.992;9.228;2022-07-04T04:42:55;1.60;;;1.50;;
21503;SDS011;10913;51.992;9.228;2022-07-04T04:45:20;2.95;;;2.00;;
21503;SDS011;10913;51.992;9.228;2022-07-04T04:47:48;2.15;;;1.70;;
21503;SDS011;10913;51.992;9.228;2022-07-04T04:50:14;4.03;;;1.88;;
21503;SDS011;10913;51.992;9.228;2022-07-04T04:52:40;2.05;;;1.92;;
21503;SDS011;10913;51.992;9.228;2022-07-04T04:55:06;1.70;;;1.60;;
21503;SDS011;10913;51.992;9.228;2022-07-04T04:57:32;1.50;;;1.40;;
21503;SDS011;10913;51.992;9.228;2022-07-04T04:59:58;2.33;;;1.90;;
21503;SDS011;10913;51.992;9.228;2022-07-04T05:02:24;3.58;;;2.17;;
21503;SDS011;10913;51.992;9.228;2022-07-04T05:04:49;2.97;;;2.20;;
21503;SDS011;10913;51.992;9.228;2022-07-04T05:07:15;2.28;;;2.08;;
21503;SDS011;10913;51.992;9.228;2022-07-04T05:09:41;2.75;;;2.22;;
21503;SDS011;10913;51.992;9.228;2022-07-04T05:12:06;3.38;;;2.22;;
21503;SDS011;10913;51.992;9.228;2022-07-04T05:14:32;3.22;;;2.45;;
21503;SDS011;10913;51.992;9.228;2022-07-04T05:16:57;3.20;;;2.45;;
21503;SDS011;10913;51.992;9.228;2022-07-04T05:19:23;3.35;;;2.60;;
21503;SDS011;10913;51.992;9.228;2022-07-04T05:21:48;2.42;;;2.22;;
21503;SDS011;10913;51.992;9.228;2022-07-04T05:24:14;3.28;;;2.65;;
21503;SDS011;10913;51.992;9.228;2022-07-04T05:26:39;4.28;;;2.72;;
21503;SDS011;10913;51.992;9.228;2022-07-04T05:29:05;2.70;;;2.50;;
21503;SDS011;10913;51.992;9.228;2022-07-04T05:31:30;2.28;;;2.08;;
21503;SDS011;10913;51.992;9.228;2022-07-04T05:33:55;2.03;;;1.83;;
21503;SDS011;10913;51.992;9.228;2022-07-04T05:36:23;3.63;;;2.53;;
21503;SDS011;10913;51.992;9.228;2022-07-04T05:38:49;2.60;;;2.20;;
21503;SDS011;10913;51.992;9.228;2022-07-04T05:41:14;2.40;;;2.20;;
21503;SDS011;10913;51.992;9.228;2022-07-04T05:43:40;2.55;;;2.20;;
21503;SDS011;10913;51.992;9.228;2022-07-04T05:46:05;2.65;;;2.15;;
21503;SDS011;10913;51.992;9.228;2022-07-04T05:48:31;3.03;;;2.72;;
21503;SDS011;10913;51.992;9.228;2022-07-04T05:50:56;6.78;;;3.33;;
21503;SDS011;10913;51.992;9.228;2022-07-04T05:53:21;4.38;;;3.13;;
21503;SDS011;10913;51.992;9.228;2022-07-04T05:55:47;3.03;;;2.60;;
21503;SDS011;10913;51.992;9.228;2022-07-04T05:58:12;3.42;;;2.70;;
21503;SDS011;10913;51.992;9.228;2022-07-04T06:00:39;4.05;;;2.78;;
21503;SDS011;10913;51.992;9.228;2022-07-04T06:03:05;4.40;;;3.22;;
21503;SDS011;10913;51.992;9.228;2022-07-04T06:05:31;5.20;;;2.88;;
21503;SDS011;10913;51.992;9.228;2022-07-04T06:07:57;3.38;;;2.95;;
21503;SDS011;10913;51.992;9.228;2022-07-04T06:10:22;4.38;;;2.92;;
21503;SDS011;10913;51.992;9.228;2022-07-04T06:12:48;3.70;;;2.70;;
21503;SDS011;10913;51.992;9.228;2022-07-04T06:15:13;3.83;;;3.13;;
21503;SDS011;10913;51.992;9.228;2022-07-04T06:17:40;2.92;;;2.70;;
21503;SDS011;10913;51.992;9.228;2022-07-04T06:20:06;4.65;;;2.80;;
21503;SDS011;10913;51.992;9.228;2022-07-04T06:22:38;3.28;;;2.38;;
21503;SDS011;10913;51.992;9.228;2022-07-04T06:25:14;4.07;;;2.80;;
21503;SDS011;10913;51.992;9.228;2022-07-04T06:27:44;3.63;;;2.50;;
21503;SDS011;10913;51.992;9.228;2022-07-04T06:30:11;2.95;;;2.63;;
21503;SDS011;10913;51.992;9.228;2022-07-04T06:35:12;4.28;;;2.88;;
21503;SDS011;10913;51.992;9.228;2022-07-04T06:40:22;3.85;;;2.90;;
21503;SDS011;10913;51.992;9.228;2022-07-04T06:42:48;3.97;;;2.92;;
21503;SDS011;10913;51.992;9.228;2022-07-04T06:45:14;2.80;;;2.60;;
21503;SDS011;10913;51.992;9.228;2022-07-04T06:47:40;4.47;;;2.47;;
21503;SDS011;10913;51.992;9.228;2022-07-04T06:50:06;2.50;;;2.30;;
21503;SDS011;10913;51.992;9.228;2022-07-04T06:52:31;3.90;;;2.08;;
21503;SDS011;10913;51.992;9.228;2022-07-04T06:54:57;2.42;;;2.20;;
21503;SDS011;10913;51.992;9.228;2022-07-04T06:57:22;3.90;;;2.00;;
21503;SDS011;10913;51.992;9.228;2022-07-04T06:59:48;3.80;;;2.08;;
21503;SDS011;10913;51.992;9.228;2022-07-04T07:02:13;3.00;;;1.90;;
21503;SDS011;10913;51.992;9.228;2022-07-04T07:04:38;3.75;;;2.28;;
21503;SDS011;10913;51.992;9.228;2022-07-04T07:07:06;2.92;;;2.00;;
21503;SDS011;10913;51.992;9.228;2022-07-04T07:09:31;4.13;;;2.05;;
21503;SDS011;10913;51.992;9.228;2022-07-04T07:11:56;2.28;;;1.77;;
21503;SDS011;10913;51.992;9.228;2022-07-04T07:14:22;4.15;;;2.20;;
21503;SDS011;10913;51.992;9.228;2022-07-04T07:16:47;3.60;;;2.10;;
21503;SDS011;10913;51.992;9.228;2022-07-04T07:19:12;2.15;;;1.95;;
21503;SDS011;10913;51.992;9.228;2022-07-04T07:21:38;3.10;;;1.90;;
21503;SDS011;10913;51.992;9.228;2022-07-04T07:24:03;2.45;;;1.90;;
21503;SDS011;10913;51.992;9.228;2022-07-04T07:26:29;2.42;;;1.75;;
21503;SDS011;10913;51.992;9.228;2022-07-04T07:28:54;2.03;;;1.83;;
21503;SDS011;10913;51.992;9.228;2022-07-04T07:31:20;3.60;;;2.30;;
21503;SDS011;10913;51.992;9.228;2022-07-04T07:33:45;2.35;;;1.73;;
21503;SDS011;10913;51.992;9.228;2022-07-04T07:36:11;1.83;;;1.38;;
21503;SDS011;10913;51.992;9.228;2022-07-04T07:38:36;2.70;;;1.42;;
21503;SDS011;10913;51.992;9.228;2022-07-04T07:41:02;2.83;;;1.50;;
21503;SDS011;10913;51.992;9.228;2022-07-04T07:43:27;2.97;;;1.60;;
21503;SDS011;10913;51.992;9.228;2022-07-04T07:45:52;2.97;;;1.70;;
21503;SDS011;10913;51.992;9.228;2022-07-04T07:48:18;2.17;;;1.55;;
21503;SDS011;10913;51.992;9.228;2022-07-04T07:50:43;1.77;;;1.42;;
21503;SDS011;10913;51.992;9.228;2022-07-04T07:53:09;2.33;;;1.48;;
21503;SDS011;10913;51.992;9.228;2022-07-04T07:55:34;1.33;;;1.20;;
21503;SDS011;10913;51.992;9.228;2022-07-04T07:58:00;2.38;;;1.70;;
21503;SDS011;10913;51.992;9.228;2022-07-04T08:00:26;2.70;;;1.30;;
21503;SDS011;10913;51.992;9.228;2022-07-04T08:02:52;2.92;;;1.60;;
21503;SDS011;10913;51.992;9.228;2022-07-04T08:05:37;2.20;;;1.30;;
21503;SDS011;10913;51.992;9.228;2022-07-04T08:08:03;1.95;;;1.13;;
21503;SDS011;10913;51.992;9.228;2022-07-04T08:10:29;1.88;;;1.20;;
21503;SDS011;10913;51.992;9.228;2022-07-04T08:12:54;1.52;;;1.10;;
21503;SDS011;10913;51.992;9.228;2022-07-04T08:15:21;1.65;;;1.08;;
21503;SDS011;10913;51.992;9.228;2022-07-04T08:17:46;0.90;;;0.85;;
21503;SDS011;10913;51.992;9.228;2022-07-04T08:20:12;1.42;;;1.20;;
21503;SDS011;10913;51.992;9.228;2022-07-04T08:22:37;2.42;;;0.98;;
21503;SDS011;10913;51.992;9.228;2022-07-04T08:25:03;1.95;;;1.17;;
21503;SDS011;10913;51.992;9.228;2022-07-04T08:27:28;2.90;;;1.27;;
21503;SDS011;10913;51.992;9.228;2022-07-04T08:29:54;1.45;;;1.10;;
21503;SDS011;10913;51.992;9.228;2022-07-04T08:32:19;1.98;;;1.20;;
21503;SDS011;10913;51.992;9.228;2022-07-04T08:34:44;1.45;;;1.20;;
21503;SDS011;10913;51.992;9.228;2022-07-04T08:37:11;2.25;;;1.27;;
21503;SDS011;10913;51.992;9.228;2022-07-04T08:39:37;1.90;;;1.42;;
21503;SDS011;10913;51.992;9.228;2022-07-04T08:42:03;2.85;;;1.60;;
21503;SDS011;10913;51.992;9.228;2022-07-04T08:44:33;5.88;;;1.50;;
21503;SDS011;10913;51.992;9.228;2022-07-04T08:47:03;1.40;;;1.30;;
21503;SDS011;10913;51.992;9.228;2022-07-04T08:49:32;2.25;;;1.60;;
21503;SDS011;10913;51.992;9.228;2022-07-04T08:51:59;2.25;;;1.60;;
21503;SDS011;10913;51.992;9.228;2022-07-04T08:54:35;2.65;;;1.70;;
21503;SDS011;10913;51.992;9.228;2022-07-04T08:57:21;1.88;;;1.40;;
21503;SDS011;10913;51.992;9.228;2022-07-04T09:00:06;2.80;;;1.50;;
21503;SDS011;10913;51.992;9.228;2022-07-04T09:02:33;2.80;;;1.60;;
21503;SDS011;10913;51.992;9.228;2022-07-04T09:04:59;1.90;;;1.33;;
21503;SDS011;10913;51.992;9.228;2022-07-04T09:07:26;2.20;;;1.17;;
21503;SDS011;10913;51.992;9.228;2022-07-04T09:09:53;1.27;;;1.13;;
21503;SDS011;10913;51.992;9.228;2022-07-04T09:12:19;3.58;;;1.20;;
21503;SDS011;10913;51.992;9.228;2022-07-04T09:14:44;1.85;;;0.98;;
21503;SDS011;10913;51.992;9.228;2022-07-04T09:17:10;1.95;;;1.00;;
21503;SDS011;10913;51.992;9.228;2022-07-04T09:19:35;2.85;;;1.30;;
21503;SDS011;10913;51.992;9.228;2022-07-04T09:22:01;1.58;;;1.00;;
21503;SDS011;10913;51.992;9.228;2022-07-04T09:27:10;1.35;;;0.90;;
21503;SDS011;10913;51.992;9.228;2022-07-04T09:29:40;1.25;;;1.00;;
21503;SDS011;10913;51.992;9.228;2022-07-04T09:32:52;2.38;;;1.00;;
21503;SDS011;10913;51.992;9.228;2022-07-04T09:35:19;1.08;;;0.90;;
21503;SDS011;10913;51.992;9.228;2022-07-04T09:37:50;1.38;;;0.88;;
21503;SDS011;10913;51.992;9.228;2022-07-04T09:40:22;1.48;;;0.90;;
21503;SDS011;10913;51.992;9.228;2022-07-04T09:42:50;1.52;;;0.95;;
21503;SDS011;10913;51.992;9.228;2022-07-04T09:45:16;1.80;;;1.02;;
21503;SDS011;10913;51.992;9.228;2022-07-04T09:47:44;2.25;;;1.05;;
21503;SDS011;10913;51.992;9.228;2022-07-04T09:52:50;1.10;;;0.75;;
21503;SDS011;10913;51.992;9.228;2022-07-04T09:55:21;0.93;;;0.90;;
21503;SDS011;10913;51.992;9.228;2022-07-04T09:57:52;1.25;;;0.80;;
21503;SDS011;10913;51.992;9.228;2022-07-04T10:02:55;0.77;;;0.73;;
21503;SDS011;10913;51.992;9.228;2022-07-04T10:05:28;2.08;;;0.80;;
21503;SDS011;10913;51.992;9.228;2022-07-04T10:07:55;1.08;;;0.60;;
21503;SDS011;10913;51.992;9.228;2022-07-04T10:13:02;1.17;;;0.55;;
21503;SDS011;10913;51.992;9.228;2022-07-04T10:15:29;2.83;;;0.80;;
21503;SDS011;10913;51.992;9.228;2022-07-04T10:17:55;1.70;;;0.95;;
21503;SDS011;10913;51.992;9.228;2022-07-04T10:20:21;1.40;;;0.90;;
21503;SDS011;10913;51.992;9.228;2022-07-04T10:22:46;2.00;;;0.75;;
21503;SDS011;10913;51.992;9.228;2022-07-04T10:25:12;2.67;;;0.80;;
21503;SDS011;10913;51.992;9.228;2022-07-04T10:27:38;0.60;;;0.60;;
21503;SDS011;10913;51.992;9.228;2022-07-04T10:30:04;0.50;;;0.50;;
21503;SDS011;10913;51.992;9.228;2022-07-04T10:32:32;0.98;;;0.80;;
21503;SDS011;10913;51.992;9.228;2022-07-04T10:34:59;0.98;;;0.70;;
21503;SDS011;10913;51.992;9.228;2022-07-04T10:37:24;1.38;;;0.70;;
21503;SDS011;10913;51.992;9.228;2022-07-04T10:39:51;0.85;;;0.73;;
21503;SDS011;10913;51.992;9.228;2022-07-04T10:42:23;1.55;;;0.80;;
21503;SDS011;10913;51.992;9.228;2022-07-04T10:44:50;0.70;;;0.70;;
21503;SDS011;10913;51.992;9.228;2022-07-04T10:47:25;1.60;;;0.80;;
21503;SDS011;10913;51.992;9.228;2022-07-04T10:49:54;2.33;;;0.77;;
21503;SDS011;10913;51.992;9.228;2022-07-04T10:52:20;0.85;;;0.60;;
21503;SDS011;10913;51.992;9.228;2022-07-04T10:54:45;1.55;;;0.70;;
21503;SDS011;10913;51.992;9.228;2022-07-04T10:59:40;1.08;;;0.80;;
21503;SDS011;10913;51.992;9.228;2022-07-04T11:07:13;1.90;;;0.77;;
21503;SDS011;10913;51.992;9.228;2022-07-04T11:09:43;0.95;;;0.75;;
21503;SDS011;10913;51.992;9.228;2022-07-04T11:12:09;1.13;;;0.60;;
21503;SDS011;10913;51.992;9.228;2022-07-04T11:17:06;2.60;;;0.70;;
21503;SDS011;10913;51.992;9.228;2022-07-04T11:19:35;0.88;;;0.70;;
21503;SDS011;10913;51.992;9.228;2022-07-04T11:22:01;1.48;;;0.70;;
21503;SDS011;10913;51.992;9.228;2022-07-04T11:24:27;2.20;;;0.60;;
21503;SDS011;10913;51.992;9.228;2022-07-04T11:26:53;0.75;;;0.57;;
21503;SDS011;10913;51.992;9.228;2022-07-04T11:29:19;1.60;;;0.88;;
21503;SDS011;10913;51.992;9.228;2022-07-04T11:31:45;1.23;;;0.70;;
21503;SDS011;10913;51.992;9.228;2022-07-04T11:34:12;0.80;;;0.70;;
21503;SDS011;10913;51.992;9.228;2022-07-04T11:36:39;0.85;;;0.70;;
21503;SDS011;10913;51.992;9.228;2022-07-04T11:39:07;1.25;;;0.70;;
21503;SDS011;10913;51.992;9.228;2022-07-04T11:41:41;1.15;;;0.80;;
21503;SDS011;10913;51.992;9.228;2022-07-04T11:44:27;1.20;;;0.80;;
21503;SDS011;10913;51.992;9.228;2022-07-04T11:47:17;2.30;;;0.70;;
21503;SDS011;10913;51.992;9.228;2022-07-04T11:49:45;1.02;;;0.88;;
21503;SDS011;10913;51.992;9.228;2022-07-04T11:52:10;0.70;;;0.70;;
21503;SDS011;10913;51.992;9.228;2022-07-04T11:54:40;1.65;;;0.82;;
21503;SDS011;10913;51.992;9.228;2022-07-04T11:57:11;2.05;;;0.80;;
21503;SDS011;10913;51.992;9.228;2022-07-04T11:59:36;0.93;;;0.70;;
21503;SDS011;10913;51.992;9.228;2022-07-04T12:02:15;1.80;;;0.70;;
21503;SDS011;10913;51.992;9.228;2022-07-04T12:04:41;1.42;;;0.60;;
21503;SDS011;10913;51.992;9.228;2022-07-04T12:07:08;1.38;;;0.70;;
21503;SDS011;10913;51.992;9.228;2022-07-04T12:09:35;1.38;;;0.82;;
21503;SDS011;10913;51.992;9.228;2022-07-04T12:12:00;2.10;;;0.70;;
21503;SDS011;10913;51.992;9.228;2022-07-04T12:14:26;2.03;;;0.80;;
21503;SDS011;10913;51.992;9.228;2022-07-04T12:19:53;1.05;;;0.70;;
21503;SDS011;10913;51.992;9.228;2022-07-04T12:24:52;1.30;;;0.70;;
21503;SDS011;10913;51.992;9.228;2022-07-04T12:27:18;1.65;;;0.70;;
21503;SDS011;10913;51.992;9.228;2022-07-04T12:29:48;2.10;;;0.80;;
21503;SDS011;10913;51.992;9.228;2022-07-04T12:32:14;1.60;;;0.70;;
21503;SDS011;10913;51.992;9.228;2022-07-04T12:34:40;0.95;;;0.70;;
21503;SDS011;10913;51.992;9.228;2022-07-04T12:37:08;1.55;;;0.80;;
21503;SDS011;10913;51.992;9.228;2022-07-04T12:39:36;0.98;;;0.85;;
21503;SDS011;10913;51.992;9.228;2022-07-04T12:42:03;1.02;;;0.60;;
21503;SDS011;10913;51.992;9.228;2022-07-04T12:44:33;1.35;;;0.90;;
21503;SDS011;10913;51.992;9.228;2022-07-04T12:46:58;1.27;;;0.68;;
21503;SDS011;10913;51.992;9.228;2022-07-04T12:49:24;1.27;;;0.82;;
21503;SDS011;10913;51.992;9.228;2022-07-04T12:51:49;1.63;;;0.77;;
21503;SDS011;10913;51.992;9.228;2022-07-04T12:54:15;1.70;;;0.80;;
21503;SDS011;10913;51.992;9.228;2022-07-04T12:56:45;1.70;;;0.70;;
21503;SDS011;10913;51.992;9.228;2022-07-04T12:59:11;0.88;;;0.70;;
21503;SDS011;10913;51.992;9.228;2022-07-04T13:01:43;1.00;;;0.60;;
21503;SDS011;10913;51.992;9.228;2022-07-04T13:04:10;1.13;;;0.57;;
21503;SDS011;10913;51.992;9.228;2022-07-04T13:06:36;1.33;;;0.90;;
21503;SDS011;10913;51.992;9.228;2022-07-04T13:09:03;1.10;;;0.80;;
21503;SDS011;10913;51.992;9.228;2022-07-04T13:11:30;1.90;;;0.90;;
21503;SDS011;10913;51.992;9.228;2022-07-04T13:14:15;0.95;;;0.80;;
21503;SDS011;10913;51.992;9.228;2022-07-04T13:16:40;1.00;;;0.65;;
21503;SDS011;10913;51.992;9.228;2022-07-04T13:19:06;1.65;;;0.85;;
21503;SDS011;10913;51.992;9.228;2022-07-04T13:21:31;1.65;;;0.80;;
21503;SDS011;10913;51.992;9.228;2022-07-04T13:23:56;2.97;;;0.82;;
21503;SDS011;10913;51.992;9.228;2022-07-04T13:26:22;1.50;;;0.90;;
21503;SDS011;10913;51.992;9.228;2022-07-04T13:28:48;1.15;;;0.70;;
21503;SDS011;10913;51.992;9.228;2022-07-04T13:31:14;1.15;;;0.73;;
21503;SDS011;10913;51.992;9.228;2022-07-04T13:33:39;1.75;;;0.70;;
21503;SDS011;10913;51.992;9.228;2022-07-04T13:36:05;0.77;;;0.70;;
21503;SDS011;10913;51.992;9.228;2022-07-04T13:38:30;3.40;;;0.85;;
21503;SDS011;10913;51.992;9.228;2022-07-04T13:40:56;1.67;;;0.80;;
21503;SDS011;10913;51.992;9.228;2022-07-04T13:43:22;0.88;;;0.70;;
21503;SDS011;10913;51.992;9.228;2022-07-04T13:45:49;1.77;;;0.82;;
21503;SDS011;10913;51.992;9.228;2022-07-04T13:48:14;1.77;;;0.88;;
21503;SDS011;10913;51.992;9.228;2022-07-04T13:50:40;1.38;;;0.73;;
21503;SDS011;10913;51.992;9.228;2022-07-04T13:53:06;2.30;;;0.90;;
21503;SDS011;10913;51.992;9.228;2022-07-04T13:55:33;1.55;;;0.80;;
21503;SDS011;10913;51.992;9.228;2022-07-04T13:58:01;1.63;;;0.82;;
21503;SDS011;10913;51.992;9.228;2022-07-04T14:00:28;1.30;;;0.68;;
21503;SDS011;10913;51.992;9.228;2022-07-04T14:02:53;0.90;;;0.65;;
21503;SDS011;10913;51.992;9.228;2022-07-04T14:05:21;0.50;;;0.50;;
21503;SDS011;10913;51.992;9.228;2022-07-04T14:07:46;1.67;;;0.88;;
21503;SDS011;10913;51.992;9.228;2022-07-04T14:10:12;1.35;;;0.73;;
21503;SDS011;10913;51.992;9.228;2022-07-04T14:12:37;0.90;;;0.60;;
21503;SDS011;10913;51.992;9.228;2022-07-04T14:15:03;2.47;;;0.80;;
21503;SDS011;10913;51.992;9.228;2022-07-04T14:17:28;2.35;;;0.77;;
21503;SDS011;10913;51.992;9.228;2022-07-04T14:19:54;0.95;;;0.80;;
21503;SDS011;10913;51.992;9.228;2022-07-04T14:22:20;1.13;;;0.60;;
21503;SDS011;10913;51.992;9.228;2022-07-04T14:24:49;0.82;;;0.65;;
21503;SDS011;10913;51.992;9.228;2022-07-04T14:27:14;1.00;;;0.73;;
21503;SDS011;10913;51.992;9.228;2022-07-04T14:29:40;1.90;;;0.80;;
21503;SDS011;10913;51.992;9.228;2022-07-04T14:32:06;1.58;;;0.60;;
21503;SDS011;10913;51.992;9.228;2022-07-04T14:34:32;1.38;;;0.70;;
21503;SDS011;10913;51.992;9.228;2022-07-04T14:36:58;1.05;;;0.80;;
21503;SDS011;10913;51.992;9.228;2022-07-04T14:39:23;3.00;;;0.77;;
21503;SDS011;10913;51.992;9.228;2022-07-04T14:41:49;1.67;;;0.80;;
21503;SDS011;10913;51.992;9.228;2022-07-04T14:44:15;1.35;;;0.73;;
21503;SDS011;10913;51.992;9.228;2022-07-04T14:46:41;1.33;;;0.70;;
21503;SDS011;10913;51.992;9.228;2022-07-04T14:49:07;1.52;;;1.00;;
21503;SDS011;10913;51.992;9.228;2022-07-04T14:51:32;2.15;;;0.80;;
21503;SDS011;10913;51.992;9.228;2022-07-04T14:53:58;1.08;;;0.77;;
21503;SDS011;10913;51.992;9.228;2022-07-04T14:56:23;1.30;;;0.70;;
21503;SDS011;10913;51.992;9.228;2022-07-04T14:58:49;0.77;;;0.70;;
21503;SDS011;10913;51.992;9.228;2022-07-04T15:01:14;4.85;;;0.70;;
21503;SDS011;10913;51.992;9.228;2022-07-04T15:03:39;1.40;;;0.70;;
21503;SDS011;10913;51.992;9.228;2022-07-04T15:06:05;1.42;;;0.80;;
21503;SDS011;10913;51.992;9.228;2022-07-04T15:08:30;1.42;;;0.70;;
21503;SDS011;10913;51.992;9.228;2022-07-04T15:10:56;1.67;;;1.00;;
21503;SDS011;10913;51.992;9.228;2022-07-04T15:13:21;0.70;;;0.70;;
21503;SDS011;10913;51.992;9.228;2022-07-04T15:15:46;4.28;;;0.95;;